createdAt,value
2018-04-01T00:02:23.482Z,4.33
2018-04-01T00:04:50.979Z,4.00
2018-04-01T00:07:18.458Z,4.90
2018-04-01T00:09:45.905Z,4.03
2018-04-01T00:12:13.353Z,4.50
2018-04-01T00:14:40.769Z,3.47
2018-04-01T00:17:08.248Z,3.50
2018-04-01T00:19:35.701Z,3.87
2018-04-01T00:22:03.139Z,4.03
2018-04-01T00:24:30.582Z,3.43
2018-04-01T00:26:58.018Z,3.70
2018-04-01T00:29:25.513Z,3.97
2018-04-01T00:31:53.131Z,4.37
2018-04-01T00:34:20.605Z,4.30
2018-04-01T00:36:48.048Z,4.30
2018-04-01T00:39:15.460Z,4.53
2018-04-01T00:41:42.946Z,4.27
2018-04-01T00:44:10.446Z,4.00
2018-04-01T00:46:38.695Z,4.00
2018-04-01T00:49:06.151Z,3.60
2018-04-01T00:51:33.626Z,3.93
2018-04-01T00:54:01.104Z,4.40
2018-04-01T00:56:28.564Z,4.10
2018-04-01T00:58:55.996Z,4.03
2018-04-01T01:01:23.449Z,3.63
2018-04-01T01:03:50.927Z,3.67
2018-04-01T01:06:18.352Z,3.30
2018-04-01T01:08:45.812Z,3.73
2018-04-01T01:11:13.249Z,3.50
2018-04-01T01:13:40.698Z,3.43
2018-04-01T01:16:08.899Z,3.40
2018-04-01T01:18:36.321Z,3.13
2018-04-01T01:21:03.803Z,3.73
2018-04-01T01:23:31.238Z,3.97
2018-04-01T01:25:58.765Z,5.27
2018-04-01T01:28:26.200Z,9.33
2018-04-01T01:30:53.651Z,8.47
2018-04-01T01:33:21.120Z,7.30
2018-04-01T01:35:48.611Z,7.47
2018-04-01T01:38:16.151Z,5.20
2018-04-01T01:40:43.604Z,4.43
2018-04-01T01:43:11.080Z,5.27
2018-04-01T01:45:38.565Z,4.03
2018-04-01T01:48:06.134Z,3.60
2018-04-01T01:50:33.649Z,3.30
2018-04-01T01:53:01.100Z,3.50
2018-04-01T01:55:28.545Z,3.97
2018-04-01T01:57:55.812Z,3.67
2018-04-01T02:00:23.097Z,3.30
2018-04-01T02:02:50.527Z,3.67
2018-04-01T02:05:17.981Z,3.50
2018-04-01T02:07:45.491Z,3.00
2018-04-01T02:10:13.040Z,3.60
2018-04-01T02:12:40.542Z,3.57
2018-04-01T02:15:08.717Z,3.47
2018-04-01T02:17:36.190Z,3.87
2018-04-01T02:20:03.659Z,3.73
2018-04-01T02:22:31.117Z,3.73
2018-04-01T02:24:58.591Z,3.83
2018-04-01T02:27:26.016Z,3.83
2018-04-01T02:29:54.049Z,3.97
2018-04-01T02:32:21.310Z,4.03
2018-04-01T02:34:48.798Z,4.13
2018-04-01T02:37:17.165Z,4.80
2018-04-01T02:39:44.612Z,4.93
2018-04-01T02:42:12.056Z,4.60
2018-04-01T02:44:39.513Z,4.17
2018-04-01T02:47:07.014Z,4.17
2018-04-01T02:49:34.466Z,3.47
2018-04-01T02:52:01.951Z,3.67
2018-04-01T02:54:29.427Z,3.50
2018-04-01T02:56:56.873Z,3.70
2018-04-01T02:59:24.334Z,3.37
2018-04-01T03:01:52.534Z,3.83
2018-04-01T03:04:19.991Z,3.77
2018-04-01T03:06:47.439Z,4.10
2018-04-01T03:09:14.870Z,5.57
2018-04-01T03:11:42.316Z,5.30
2018-04-01T03:14:13.961Z,6.33
2018-04-01T03:16:41.440Z,5.80
2018-04-01T03:19:08.912Z,6.53
2018-04-01T03:21:36.383Z,6.00
2018-04-01T03:24:04.592Z,6.20
2018-04-01T03:26:32.079Z,6.17
2018-04-01T03:28:59.518Z,5.90
2018-04-01T03:31:27.007Z,6.40
2018-04-01T03:33:54.504Z,6.07
2018-04-01T03:36:22.710Z,6.50
2018-04-01T03:38:50.157Z,6.27
2018-04-01T03:41:17.626Z,6.37
2018-04-01T03:43:45.112Z,6.77
2018-04-01T03:46:13.537Z,6.63
2018-04-01T03:48:41.762Z,5.70
2018-04-01T03:51:09.161Z,6.23
2018-04-01T03:53:36.642Z,6.03
2018-04-01T03:56:04.874Z,7.00
2018-04-01T03:58:32.493Z,7.53
2018-04-01T04:00:59.754Z,6.97
2018-04-01T04:03:27.031Z,6.37
2018-04-01T04:05:54.311Z,6.17
2018-04-01T04:08:21.552Z,6.43
2018-04-01T04:10:49.028Z,7.07
2018-04-01T04:13:16.503Z,5.97
2018-04-01T04:15:43.921Z,5.90
2018-04-01T04:18:11.354Z,6.50
2018-04-01T04:20:38.792Z,7.37
2018-04-01T04:23:07.020Z,6.73
2018-04-01T04:25:34.487Z,7.10
2018-04-01T04:28:01.954Z,6.43
2018-04-01T04:30:29.253Z,5.83
2018-04-01T04:32:56.721Z,6.33
2018-04-01T04:35:24.194Z,6.77
2018-04-01T04:37:51.596Z,6.67
2018-04-01T04:40:19.057Z,6.33
2018-04-01T04:42:46.512Z,6.33
2018-04-01T04:45:13.972Z,6.73
2018-04-01T04:47:41.432Z,6.37
2018-04-01T04:50:08.897Z,6.40
2018-04-01T04:52:36.361Z,5.00
2018-04-01T04:55:03.794Z,6.03
2018-04-01T04:57:31.235Z,5.40
2018-04-01T04:59:58.660Z,5.33
2018-04-01T05:02:26.887Z,5.13
2018-04-01T05:04:54.299Z,6.17
2018-04-01T05:07:21.774Z,5.30
2018-04-01T05:09:49.245Z,5.53
2018-04-01T05:12:16.707Z,5.73
2018-04-01T05:14:44.157Z,5.00
2018-04-01T05:17:11.601Z,5.03
2018-04-01T05:19:39.597Z,5.03
2018-04-01T05:22:06.913Z,4.83
2018-04-01T05:24:34.335Z,4.13
2018-04-01T05:27:01.823Z,5.20
2018-04-01T05:29:29.405Z,4.53
2018-04-01T05:31:56.864Z,3.83
2018-04-01T05:34:25.081Z,4.00
2018-04-01T05:36:53.318Z,4.03
2018-04-01T05:39:20.755Z,3.73
2018-04-01T05:41:48.222Z,3.60
2018-04-01T05:44:20.039Z,4.27
2018-04-01T05:46:48.269Z,4.27
2018-04-01T05:49:15.794Z,4.50
2018-04-01T05:51:43.227Z,4.53
2018-04-01T05:54:10.691Z,4.40
2018-04-01T05:56:38.165Z,4.33
2018-04-01T05:59:05.624Z,4.13
2018-04-01T06:01:33.100Z,3.73
2018-04-01T06:04:00.611Z,4.17
2018-04-01T06:06:28.134Z,5.53
2018-04-01T06:08:55.784Z,5.27
2018-04-01T06:11:23.134Z,4.40
2018-04-01T06:13:50.598Z,3.97
2018-04-01T06:16:18.049Z,4.47
2018-04-01T06:18:45.470Z,4.20
2018-04-01T06:21:12.982Z,4.00
2018-04-01T06:23:40.406Z,4.13
2018-04-01T06:26:07.857Z,3.90
2018-04-01T06:28:35.329Z,3.77
2018-04-01T06:31:02.768Z,4.67
2018-04-01T06:33:30.252Z,4.60
2018-04-01T06:35:57.674Z,5.07
2018-04-01T06:38:25.147Z,4.77
2018-04-01T06:40:53.341Z,5.27
2018-04-01T06:43:20.815Z,5.50
2018-04-01T06:45:48.276Z,4.87
2018-04-01T06:48:16.712Z,5.50
2018-04-01T06:50:44.985Z,4.77
2018-04-01T06:53:13.171Z,5.43
2018-04-01T06:55:40.626Z,5.67
2018-04-01T06:58:08.250Z,5.23
2018-04-01T07:00:35.722Z,6.43
2018-04-01T07:03:03.183Z,6.50
2018-04-01T07:05:30.821Z,6.80
2018-04-01T07:07:58.300Z,7.50
2018-04-01T07:10:25.724Z,6.63
2018-04-01T07:12:53.193Z,6.80
2018-04-01T07:15:20.607Z,6.77
2018-04-01T07:17:48.870Z,7.93
2018-04-01T07:20:16.354Z,7.97
2018-04-01T07:22:43.895Z,7.77
2018-04-01T07:25:12.157Z,8.33
2018-04-01T07:27:39.596Z,8.63
2018-04-01T07:30:07.104Z,8.83
2018-04-01T07:32:35.298Z,8.20
2018-04-01T07:35:03.542Z,9.33
2018-04-01T07:37:31.128Z,9.40
2018-04-01T07:39:58.571Z,9.50
2018-04-01T07:42:26.053Z,13.90
2018-04-01T07:44:53.674Z,13.47
2018-04-01T07:47:21.158Z,11.83
2018-04-01T07:49:48.598Z,16.00
2018-04-01T07:52:16.068Z,12.93
2018-04-01T07:54:43.519Z,11.80
2018-04-01T07:57:11.406Z,10.47
2018-04-01T07:59:38.843Z,6.17
2018-04-01T08:02:06.273Z,5.47
2018-04-01T08:04:33.729Z,5.27
2018-04-01T08:07:01.153Z,4.90
2018-04-01T08:09:28.591Z,5.03
2018-04-01T08:11:56.034Z,5.03
2018-04-01T08:14:23.495Z,5.80
2018-04-01T08:16:50.992Z,5.87
2018-04-01T08:19:19.168Z,5.93
2018-04-01T08:21:46.645Z,4.50
2018-04-01T08:24:14.855Z,4.03
2018-04-01T08:26:42.081Z,3.70
2018-04-01T08:29:09.493Z,4.30
2018-04-01T08:31:37.006Z,4.30
2018-04-01T08:34:04.468Z,4.20
2018-04-01T08:36:33.009Z,4.50
2018-04-01T08:39:00.468Z,5.27
2018-04-01T08:41:27.883Z,7.20
2018-04-01T08:43:55.368Z,7.93
2018-04-01T08:46:22.871Z,7.83
2018-04-01T08:48:50.400Z,9.43
2018-04-01T08:51:18.282Z,9.83
2018-04-01T08:53:46.767Z,10.07
2018-04-01T08:56:14.239Z,10.67
2018-04-01T08:58:46.395Z,11.47
2018-04-01T09:01:14.810Z,10.13
2018-04-01T09:03:43.148Z,8.63
2018-04-01T09:06:10.647Z,7.93
2018-04-01T09:08:38.848Z,8.60
2018-04-01T09:11:06.291Z,8.80
2018-04-01T09:13:37.350Z,8.67
2018-04-01T09:16:04.751Z,9.47
2018-04-01T09:18:32.216Z,8.80
2018-04-01T09:20:59.728Z,9.57
2018-04-01T09:23:27.187Z,11.67
2018-04-01T09:25:54.657Z,11.70
2018-04-01T09:28:22.102Z,8.93
2018-04-01T09:30:49.721Z,8.87
2018-04-01T09:33:19.340Z,10.47
2018-04-01T09:35:46.800Z,8.97
2018-04-01T09:38:16.319Z,8.50
2018-04-01T09:40:43.779Z,9.93
2018-04-01T09:43:11.238Z,10.63
2018-04-01T09:45:39.426Z,9.77
2018-04-01T09:48:07.654Z,9.47
2018-04-01T09:50:35.067Z,10.97
2018-04-01T09:53:03.316Z,9.97
2018-04-01T09:55:30.745Z,11.17
2018-04-01T09:57:58.224Z,11.80
2018-04-01T10:00:44.527Z,12.53
2018-04-01T10:03:13.173Z,11.67
2018-04-01T10:05:47.692Z,11.77
2018-04-01T10:08:16.316Z,11.60
2018-04-01T10:10:44.963Z,10.67
2018-04-01T10:13:13.945Z,10.43
2018-04-01T10:15:42.627Z,10.30
2018-04-01T10:18:11.262Z,9.53
2018-04-01T10:20:39.916Z,8.80
2018-04-01T10:23:08.650Z,9.20
2018-04-01T10:25:37.257Z,8.23
2018-04-01T10:28:06.430Z,8.10
2018-04-01T10:30:34.897Z,8.07
2018-04-01T10:33:03.576Z,7.77
2018-04-01T10:35:32.984Z,8.33
2018-04-01T10:38:01.636Z,7.83
2018-04-01T10:40:31.362Z,7.50
2018-04-01T10:43:00.771Z,7.33
2018-04-01T10:45:29.867Z,7.57
2018-04-01T10:47:59.522Z,7.63
2018-04-01T10:50:40.687Z,7.13
2018-04-01T10:53:09.125Z,6.57
2018-04-01T10:55:36.414Z,6.00
2018-04-01T10:58:03.861Z,6.43
2018-04-01T11:00:31.299Z,6.70
2018-04-01T11:02:58.760Z,7.33
2018-04-01T11:05:26.246Z,7.40
2018-04-01T11:07:53.573Z,6.57
2018-04-01T11:10:21.028Z,7.17
2018-04-01T11:12:48.505Z,7.17
2018-04-01T11:15:16.711Z,7.60
2018-04-01T11:17:44.195Z,8.73
2018-04-01T11:20:11.666Z,8.33
2018-04-01T11:22:39.155Z,8.37
2018-04-01T11:25:07.374Z,9.50
2018-04-01T11:27:34.846Z,8.17
2018-04-01T11:30:02.318Z,7.70
2018-04-01T11:32:30.087Z,6.53
2018-04-01T11:34:59.000Z,7.00
2018-04-01T11:37:26.440Z,3.60
2018-04-01T11:39:54.048Z,4.43
2018-04-01T11:42:22.312Z,4.30
2018-04-01T11:44:49.760Z,4.37
2018-04-01T11:47:17.213Z,4.00
2018-04-01T11:49:47.411Z,4.20
2018-04-01T11:52:14.635Z,4.00
2018-04-01T11:54:42.038Z,4.70
2018-04-01T11:57:13.307Z,3.97
2018-04-01T11:59:40.814Z,4.30
2018-04-01T12:02:16.907Z,4.63
2018-04-01T12:04:44.365Z,4.43
2018-04-01T12:07:17.905Z,4.10
2018-04-01T12:09:46.149Z,4.63
2018-04-01T12:12:13.596Z,4.53
2018-04-01T12:14:41.040Z,4.70
2018-04-01T12:17:08.463Z,5.10
2018-04-01T12:19:35.964Z,5.07
2018-04-01T12:22:03.389Z,5.43
2018-04-01T12:24:31.616Z,5.90
2018-04-01T12:26:59.108Z,5.57
2018-04-01T12:29:44.146Z,5.97
2018-04-01T12:32:11.696Z,7.33
2018-04-01T12:34:39.124Z,7.23
2018-04-01T12:37:07.350Z,8.63
2018-04-01T12:39:34.908Z,10.90
2018-04-01T12:42:02.464Z,8.53
2018-04-01T12:44:29.892Z,8.40
2018-04-01T12:46:57.350Z,8.70
2018-04-01T12:49:25.738Z,9.80
2018-04-01T12:51:53.187Z,11.13
2018-04-01T12:54:21.422Z,11.03
2018-04-01T12:56:48.895Z,7.90
2018-04-01T12:59:16.381Z,5.63
2018-04-01T13:01:44.579Z,4.80
2018-04-01T13:04:12.081Z,5.57
2018-04-01T13:06:47.959Z,6.30
2018-04-01T13:09:15.428Z,6.63
2018-04-01T13:11:42.883Z,6.60
2018-04-01T13:14:10.372Z,6.93
2018-04-01T13:16:38.513Z,6.70
2018-04-01T13:19:07.045Z,8.27
2018-04-01T13:21:35.417Z,7.90
2018-04-01T13:24:02.884Z,6.93
2018-04-01T13:26:30.569Z,7.83
2018-04-01T13:28:58.042Z,8.70
2018-04-01T13:31:25.566Z,8.17
2018-04-01T13:33:53.016Z,8.13
2018-04-01T13:36:21.089Z,7.97
2018-04-01T13:38:48.560Z,8.90
2018-04-01T13:41:16.009Z,8.37
2018-04-01T13:43:43.521Z,9.43
2018-04-01T13:46:19.018Z,9.40
2018-04-01T13:48:46.519Z,10.20
2018-04-01T13:51:27.429Z,9.57
2018-04-01T13:53:54.985Z,9.40
2018-04-01T13:56:24.267Z,10.60
2018-04-01T13:58:51.729Z,10.37
2018-04-01T14:01:19.188Z,10.47
2018-04-01T14:03:46.738Z,10.50
2018-04-01T14:06:15.157Z,13.10
2018-04-01T14:08:42.618Z,13.27
2018-04-01T14:11:10.118Z,12.80
2018-04-01T14:13:37.527Z,14.73
2018-04-01T14:16:05.169Z,15.40
2018-04-01T14:18:32.646Z,11.03
2018-04-01T14:21:00.137Z,19.03
2018-04-01T14:23:27.644Z,12.23
2018-04-01T14:25:57.515Z,21.47
2018-04-01T14:28:25.728Z,18.17
2018-04-01T14:30:57.369Z,15.30
2018-04-01T14:33:24.832Z,11.80
2018-04-01T14:35:52.300Z,11.77
2018-04-01T14:38:19.715Z,13.40
2018-04-01T14:40:47.231Z,10.67
2018-04-01T14:43:26.040Z,12.93
2018-04-01T14:45:53.496Z,8.80
2018-04-01T14:48:20.929Z,9.63
2018-04-01T14:50:49.178Z,8.17
2018-04-01T14:53:16.641Z,7.63
2018-04-01T14:55:44.085Z,7.23
2018-04-01T14:58:19.223Z,16.67
2018-04-01T15:00:46.888Z,11.17
2018-04-01T15:03:14.354Z,8.80
2018-04-01T15:05:41.795Z,9.00
2018-04-01T15:08:09.543Z,7.63
2018-04-01T15:10:37.017Z,8.40
2018-04-01T15:13:04.482Z,8.77
2018-04-01T15:15:31.930Z,9.23
2018-04-01T15:17:59.397Z,8.40
2018-04-01T15:20:26.887Z,9.40
2018-04-01T15:22:55.102Z,7.70
2018-04-01T15:25:22.568Z,7.30
2018-04-01T15:27:49.997Z,6.93
2018-04-01T15:30:17.433Z,6.97
2018-04-01T15:32:46.888Z,6.60
2018-04-01T15:35:14.309Z,6.90
2018-04-01T15:37:41.846Z,6.17
2018-04-01T15:40:19.816Z,6.03
2018-04-01T15:42:51.511Z,6.60
2018-04-01T15:45:18.936Z,6.80
2018-04-01T15:47:59.448Z,6.73
2018-04-01T15:50:26.923Z,6.73
2018-04-01T15:52:54.313Z,6.93
2018-04-01T15:55:22.625Z,6.77
2018-04-01T15:57:54.768Z,6.87
2018-04-01T16:00:23.292Z,7.30
2018-04-01T16:02:50.778Z,6.63
2018-04-01T16:05:18.256Z,7.47
2018-04-01T16:07:46.478Z,6.53
2018-04-01T16:10:13.938Z,6.90
2018-04-01T16:12:41.447Z,6.70
2018-04-01T16:15:08.850Z,7.43
2018-04-01T16:17:36.318Z,7.27
2018-04-01T16:20:03.764Z,7.30
2018-04-01T16:22:31.441Z,6.90
2018-04-01T16:24:58.921Z,7.30
2018-04-01T16:27:26.168Z,7.60
2018-04-01T16:29:57.520Z,6.97
2018-04-01T16:32:24.959Z,7.43
2018-04-01T16:34:57.530Z,7.27
2018-04-01T16:37:24.990Z,8.20
2018-04-01T16:39:52.441Z,8.20
2018-04-01T16:42:19.889Z,12.50
2018-04-01T16:44:49.304Z,9.23
2018-04-01T16:47:16.780Z,8.17
2018-04-01T16:49:44.224Z,14.30
2018-04-01T16:52:16.997Z,16.80
2018-04-01T16:54:45.271Z,15.73
2018-04-01T16:57:13.552Z,29.23
2018-04-01T16:59:41.057Z,11.17
2018-04-01T17:02:08.752Z,10.47
2018-04-01T17:04:36.234Z,10.07
2018-04-01T17:07:04.461Z,9.53
2018-04-01T17:09:31.916Z,9.77
2018-04-01T17:12:04.307Z,9.93
2018-04-01T17:14:31.766Z,11.73
2018-04-01T17:16:59.221Z,10.80
2018-04-01T17:19:26.500Z,11.00
2018-04-01T17:21:53.998Z,11.20
2018-04-01T17:24:22.228Z,10.63
2018-04-01T17:26:49.707Z,10.53
2018-04-01T17:29:20.501Z,11.00
2018-04-01T17:31:47.920Z,11.83
2018-04-01T17:34:16.171Z,11.87
2018-04-01T17:36:43.615Z,12.13
2018-04-01T17:39:11.097Z,11.83
2018-04-01T17:41:38.549Z,12.70
2018-04-01T17:44:06.009Z,12.83
2018-04-01T17:46:33.486Z,13.57
2018-04-01T17:49:00.963Z,12.33
2018-04-01T17:51:28.470Z,13.07
2018-04-01T17:53:55.939Z,13.70
2018-04-01T17:56:23.506Z,13.03
2018-04-01T17:58:50.935Z,13.80
2018-04-01T18:01:18.431Z,14.60
2018-04-01T18:03:45.936Z,14.77
2018-04-01T18:06:13.352Z,14.83
2018-04-01T18:08:40.812Z,14.10
2018-04-01T18:11:08.331Z,14.60
2018-04-01T18:13:35.792Z,15.67
2018-04-01T18:16:03.271Z,15.40
2018-04-01T18:18:30.709Z,14.83
2018-04-01T18:20:58.175Z,16.97
2018-04-01T18:23:25.617Z,18.77
2018-04-01T18:25:55.193Z,17.03
2018-04-01T18:28:23.374Z,17.03
2018-04-01T18:30:56.747Z,12.93
2018-04-01T18:33:24.257Z,12.70
2018-04-01T18:35:51.686Z,12.37
2018-04-01T18:38:19.156Z,12.37
2018-04-01T18:40:46.610Z,11.33
2018-04-01T18:43:15.230Z,11.90
2018-04-01T18:45:42.684Z,10.90
2018-04-01T18:48:10.147Z,11.63
2018-04-01T18:50:38.400Z,10.83
2018-04-01T18:53:06.599Z,12.20
2018-04-01T18:55:34.853Z,18.33
2018-04-01T18:58:03.099Z,25.70
2018-04-01T19:00:30.573Z,20.80
2018-04-01T19:02:58.009Z,22.07
2018-04-01T19:05:25.476Z,19.47
2018-04-01T19:07:59.600Z,15.47
2018-04-01T19:10:27.098Z,16.00
2018-04-01T19:12:58.694Z,16.33
2018-04-01T19:15:26.155Z,14.47
2018-04-01T19:17:54.857Z,13.60
2018-04-01T19:20:23.506Z,15.83
2018-04-01T19:22:52.129Z,13.27
2018-04-01T19:25:21.764Z,13.30
2018-04-01T19:27:50.432Z,16.20
2018-04-01T19:30:23.550Z,14.40
2018-04-01T19:32:52.249Z,14.10
2018-04-01T19:35:21.661Z,12.50
2018-04-01T19:37:51.066Z,12.73
2018-04-01T19:40:19.790Z,15.93
2018-04-01T19:42:49.374Z,15.43
2018-04-01T19:45:19.210Z,14.70
2018-04-01T19:47:47.840Z,14.30
2018-04-01T19:50:16.671Z,20.20
2018-04-01T19:52:45.790Z,25.63
2018-04-01T19:55:25.766Z,12.83
2018-04-01T19:57:54.380Z,12.10
2018-04-01T20:00:22.975Z,12.97
2018-04-01T20:02:51.620Z,15.90
2018-04-01T20:05:20.269Z,16.00
2018-04-01T20:07:49.881Z,18.20
2018-04-01T20:10:19.264Z,14.27
2018-04-01T20:12:48.653Z,16.00
2018-04-01T20:15:17.268Z,13.50
2018-04-01T20:17:45.921Z,14.20
2018-04-01T20:20:14.632Z,14.07
2018-04-01T20:22:43.305Z,13.50
2018-04-01T20:25:12.145Z,14.07
2018-04-01T20:27:40.918Z,14.47
2018-04-01T20:30:10.342Z,14.40
2018-04-01T20:32:39.033Z,14.27
2018-04-01T20:35:08.063Z,16.40
2018-04-01T20:37:36.784Z,19.37
2018-04-01T20:40:05.690Z,18.10
2018-04-01T20:42:34.540Z,17.93
2018-04-01T20:45:03.360Z,18.13
2018-04-01T20:47:31.995Z,18.00
2018-04-01T20:50:05.575Z,18.37
2018-04-01T20:52:34.427Z,18.07
2018-04-01T20:55:03.039Z,18.83
2018-04-01T20:57:32.510Z,19.83
2018-04-01T21:00:01.241Z,18.87
2018-04-01T21:02:30.675Z,18.60
2018-04-01T21:04:59.342Z,20.93
2018-04-01T21:07:28.156Z,20.83
2018-04-01T21:09:56.818Z,19.67
2018-04-01T21:12:26.240Z,20.30
2018-04-01T21:14:55.908Z,21.67
2018-04-01T21:17:26.281Z,21.63
2018-04-01T21:19:54.953Z,22.97
2018-04-01T21:22:25.713Z,22.03
2018-04-01T21:24:54.461Z,23.00
2018-04-01T21:27:23.310Z,22.70
2018-04-01T21:29:52.115Z,22.80
2018-04-01T21:32:20.602Z,21.87
2018-04-01T21:34:49.330Z,21.90
2018-04-01T21:37:20.933Z,21.53
2018-04-01T21:39:49.566Z,21.60
2018-04-01T21:42:19.083Z,21.47
2018-04-01T21:44:48.459Z,23.10
2018-04-01T21:47:17.139Z,21.20
2018-04-01T21:49:45.965Z,20.97
2018-04-01T21:52:15.850Z,21.33
2018-04-01T21:54:45.435Z,20.90
2018-04-01T21:57:14.241Z,20.53
2018-04-01T21:59:43.027Z,20.67
2018-04-01T22:02:11.676Z,21.00
2018-04-01T22:04:40.306Z,22.07
2018-04-01T22:07:08.950Z,20.00
2018-04-01T22:09:37.565Z,21.77
2018-04-01T22:12:06.349Z,20.43
2018-04-01T22:14:34.945Z,22.40
2018-04-01T22:17:04.565Z,20.70
2018-04-01T22:19:33.199Z,21.33
2018-04-01T22:22:02.587Z,21.73
2018-04-01T22:24:31.408Z,21.27
2018-04-01T22:27:02.232Z,22.33
2018-04-01T22:29:31.753Z,23.20
2018-04-01T22:32:01.931Z,22.73
2018-04-01T22:34:30.580Z,22.63
2018-04-01T22:36:59.184Z,21.67
2018-04-01T22:39:28.027Z,22.90
2018-04-01T22:41:56.628Z,23.90
2018-04-01T22:44:26.045Z,24.70
2018-04-01T22:46:54.767Z,25.53
2018-04-01T22:49:23.405Z,24.50
2018-04-01T22:51:52.840Z,25.13
2018-04-01T22:54:22.200Z,26.83
2018-04-01T22:56:50.614Z,25.83
2018-04-01T22:59:19.260Z,27.40
2018-04-01T23:01:47.869Z,28.13
2018-04-01T23:04:22.068Z,27.57
2018-04-01T23:06:50.776Z,26.93
2018-04-01T23:09:19.360Z,27.97
2018-04-01T23:11:48.783Z,27.47
2018-04-01T23:14:17.387Z,28.00
2018-04-01T23:16:46.163Z,27.77
2018-04-01T23:19:14.763Z,27.43
2018-04-01T23:21:43.390Z,29.20
2018-04-01T23:24:11.984Z,28.23
2018-04-01T23:26:40.648Z,28.43
2018-04-01T23:29:11.438Z,28.87
2018-04-01T23:31:40.815Z,28.00
2018-04-01T23:34:10.510Z,28.47
2018-04-01T23:36:39.133Z,29.43
2018-04-01T23:39:08.526Z,29.57
2018-04-01T23:41:37.319Z,29.97
2018-04-01T23:44:05.929Z,30.77
2018-04-01T23:46:34.577Z,29.37
2018-04-01T23:49:03.165Z,30.97
2018-04-01T23:51:31.811Z,30.03
2018-04-01T23:54:00.522Z,30.03
2018-04-01T23:56:29.327Z,30.87
2018-04-01T23:58:57.760Z,29.53
